ECHTT LEVX-LESA

Flight info

Callsign ECHTT
Flight time N/A
Altitude 7000
Route BEDAL Z406 ZMR DCT BBI
Aircraft C208/L-SDFGR/C

Departure

Time 2026-04-25 21:54
Airport Vigo Airport (LEVX)

Arrival

Time N/A
Airport Salamanca Airport (LESA)
Time Latitude Longitude Altitude Speed Heading
2026-04-25 21:48 42.22583 -8.63180 859 ft 0 kts 279°
2026-04-25 21:49 42.22584 -8.63184 859 ft 3 kts 296°
2026-04-25 21:49 42.22599 -8.63164 855 ft 7 kts 105°
2026-04-25 21:49 42.22597 -8.63071 858 ft 13 kts 56°
2026-04-25 21:50 42.22667 -8.63023 857 ft 8 kts 46°
2026-04-25 21:50 42.22721 -8.62961 857 ft 12 kts 40°
2026-04-25 21:50 42.22817 -8.62858 855 ft 23 kts 40°
2026-04-25 21:50 42.22902 -8.62785 856 ft 21 kts 30°
2026-04-25 21:51 42.23098 -8.62701 853 ft 28 kts 10°
2026-04-25 21:51 42.23301 -8.62647 851 ft 28 kts 10°
2026-04-25 21:51 42.23483 -8.62599 847 ft 26 kts 12°
2026-04-25 21:51 42.23713 -8.62536 838 ft 34 kts 11°
2026-04-25 21:52 42.23920 -8.62480 839 ft 28 kts 12°
2026-04-25 21:52 42.24098 -8.62434 838 ft 24 kts 13°
2026-04-25 21:52 42.24193 -8.62448 839 ft 13 kts 351°
2026-04-25 21:52 42.24231 -8.62388 838 ft 8 kts 139°
2026-04-25 21:53 42.24186 -8.62409 837 ft 0 kts 193°
2026-04-25 21:53 42.24182 -8.62410 831 ft 1 kts 192°
2026-04-25 21:53 42.23932 -8.62478 839 ft 73 kts 192°
2026-04-25 21:53 42.23488 -8.62584 970 ft 89 kts 191°
2026-04-25 21:54 42.22944 -8.62741 1187 ft 94 kts 191°
2026-04-25 21:54 42.22288 -8.62889 1440 ft 100 kts 186°
2026-04-25 21:54 42.21622 -8.63028 1788 ft 95 kts 186°
2026-04-25 21:54 42.20990 -8.63246 2096 ft 92 kts 189°
2026-04-25 21:55 42.20375 -8.63474 2369 ft 90 kts 191°
2026-04-25 21:55 42.19762 -8.63722 2599 ft 99 kts 190°
2026-04-25 21:55 42.19095 -8.63966 2885 ft 98 kts 184°
2026-04-25 21:55 42.18587 -8.63585 3189 ft 85 kts 103°
2026-04-25 21:56 42.18422 -8.62846 3502 ft 81 kts 101°
2026-04-25 21:56 42.18457 -8.62360 3707 ft 79 kts 78°
2026-04-25 21:56 42.18539 -8.61407 4121 ft 76 kts 82°
2026-04-25 21:56 42.18595 -8.60683 4359 ft 83 kts 84°
2026-04-25 21:57 42.18662 -8.59847 4503 ft 97 kts 85°
2026-04-25 21:57 42.18747 -8.58883 4607 ft 108 kts 84°
2026-04-25 21:57 42.18839 -8.57832 4705 ft 117 kts 84°
2026-04-25 21:57 42.18937 -8.56724 4827 ft 121 kts 84°
2026-04-25 21:58 42.19037 -8.55586 4938 ft 123 kts 84°
2026-04-25 21:58 42.19145 -8.54435 5038 ft 125 kts 84°
2026-04-25 21:58 42.19250 -8.53266 5139 ft 126 kts 84°
2026-04-25 21:58 42.19368 -8.52058 5247 ft 138 kts 84°
2026-04-25 21:59 42.19493 -8.50716 5368 ft 149 kts 84°
2026-04-25 21:59 42.19627 -8.49303 5486 ft 154 kts 84°
2026-04-25 21:59 42.19759 -8.47877 5589 ft 157 kts 84°
2026-04-25 22:00 42.20053 -8.44903 5805 ft 162 kts 84°
2026-04-25 22:00 42.20205 -8.43396 5891 ft 162 kts 84°
2026-04-25 22:00 42.20359 -8.41892 5993 ft 162 kts 84°
2026-04-25 22:00 42.20515 -8.40380 6080 ft 163 kts 84°
2026-04-25 22:01 42.20674 -8.38842 6076 ft 168 kts 84°
2026-04-25 22:01 42.20831 -8.37279 6077 ft 169 kts 84°
2026-04-25 22:01 42.20989 -8.35699 6082 ft 170 kts 84°
2026-04-25 22:01 42.21093 -8.34652 6082 ft 171 kts 84°
2026-04-25 22:02 42.21304 -8.32526 6087 ft 171 kts 84°
2026-04-25 22:02 42.21458 -8.30927 6087 ft 172 kts 84°
2026-04-25 22:02 42.21609 -8.29325 6082 ft 172 kts 84°
2026-04-25 22:02 42.21759 -8.27733 6082 ft 171 kts 84°
2026-04-25 22:03 42.21907 -8.26161 6083 ft 171 kts 84°
2026-04-25 22:03 42.22056 -8.24564 6073 ft 172 kts 84°
2026-04-25 22:03 42.22206 -8.22964 6080 ft 172 kts 84°
2026-04-25 22:03 42.22357 -8.21364 6073 ft 172 kts 84°
2026-04-25 22:04 42.22505 -8.19754 6082 ft 173 kts 84°
2026-04-25 22:04 42.22653 -8.18139 6074 ft 174 kts 84°
2026-04-25 22:04 42.22798 -8.16526 6075 ft 173 kts 84°
2026-04-25 22:04 42.22946 -8.14916 6072 ft 172 kts 84°
2026-04-25 22:05 42.23092 -8.13311 6062 ft 172 kts 84°
2026-04-25 22:05 42.23234 -8.11706 6080 ft 172 kts 84°
2026-04-25 22:05 42.23376 -8.10101 6079 ft 172 kts 84°
2026-04-25 22:05 42.23518 -8.08492 6079 ft 172 kts 84°
2026-04-25 22:06 42.23659 -8.06905 6081 ft 172 kts 84°
2026-04-25 22:06 42.23800 -8.05286 6081 ft 171 kts 84°
2026-04-25 22:06 42.23940 -8.03708 6081 ft 171 kts 84°
2026-04-25 22:06 42.24080 -8.02110 6079 ft 171 kts 84°
2026-04-25 22:07 42.24220 -8.00511 6078 ft 171 kts 84°
2026-04-25 22:07 42.24312 -7.99455 6081 ft 171 kts 86°
2026-04-25 22:07 42.24009 -7.97387 6083 ft 170 kts 118°
2026-04-25 22:07 42.23385 -7.96033 6078 ft 170 kts 122°
2026-04-25 22:08 42.22750 -7.94689 6082 ft 170 kts 122°
2026-04-25 22:08 42.22111 -7.93341 6094 ft 171 kts 122°
2026-04-25 22:08 42.21468 -7.91993 6087 ft 171 kts 122°
2026-04-25 22:08 42.20827 -7.90648 6087 ft 170 kts 122°
2026-04-25 22:09 42.20183 -7.89301 6086 ft 171 kts 123°
2026-04-25 22:09 42.19542 -7.87956 6084 ft 170 kts 122°
2026-04-25 22:09 42.18905 -7.86614 6085 ft 170 kts 122°
2026-04-25 22:09 42.18266 -7.85270 6089 ft 170 kts 123°
2026-04-25 22:10 42.17627 -7.83923 6090 ft 171 kts 122°
2026-04-25 22:10 42.16989 -7.82579 6078 ft 170 kts 123°
2026-04-25 22:10 42.16407 -7.81353 6088 ft 170 kts 122°
2026-04-25 22:11 42.15769 -7.80010 6092 ft 171 kts 123°
2026-04-25 22:11 42.14923 -7.78225 6094 ft 171 kts 122°
2026-04-25 22:11 42.14488 -7.77311 6088 ft 171 kts 122°
2026-04-25 22:11 42.13635 -7.75522 6097 ft 171 kts 122°
2026-04-25 22:12 42.13202 -7.74613 6091 ft 171 kts 122°
2026-04-25 22:12 42.12558 -7.73263 6092 ft 171 kts 122°
2026-04-25 22:12 42.11918 -7.71919 6083 ft 170 kts 123°
2026-04-25 22:12 42.11494 -7.71031 6092 ft 170 kts 123°
2026-04-25 22:13 42.10785 -7.69142 6083 ft 170 kts 104°
2026-04-25 22:13 42.10761 -7.67575 6083 ft 171 kts 81°
2026-04-25 22:13 42.11212 -7.66094 6083 ft 173 kts 58°
2026-04-25 22:13 42.12079 -7.64965 6074 ft 176 kts 35°
2026-04-25 22:14 42.13227 -7.64379 6087 ft 179 kts 13°
2026-04-25 22:14 42.14390 -7.63859 6086 ft 176 kts 32°
2026-04-25 22:14 42.15383 -7.62913 6105 ft 174 kts 42°
2026-04-25 22:14 42.16270 -7.61807 6113 ft 174 kts 48°
2026-04-25 22:15 42.17061 -7.60581 6120 ft 173 kts 54°
2026-04-25 22:15 42.17771 -7.59270 6148 ft 173 kts 58°
2026-04-25 22:15 42.18399 -7.57897 6178 ft 172 kts 63°
2026-04-25 22:16 42.19409 -7.54976 6239 ft 171 kts 71°
2026-04-25 22:16 42.19806 -7.53484 6254 ft 171 kts 73°
2026-04-25 22:16 42.20152 -7.51948 6259 ft 173 kts 77°
2026-04-25 22:16 42.20416 -7.50367 6287 ft 171 kts 81°
2026-04-25 22:17 42.20613 -7.48791 6371 ft 169 kts 83°
2026-04-25 22:17 42.20763 -7.47213 6351 ft 172 kts 84°
2026-04-25 22:17 42.20928 -7.45616 6404 ft 170 kts 82°
2026-04-25 22:17 42.21126 -7.44055 6427 ft 170 kts 81°
2026-04-25 22:18 42.21482 -7.42535 6454 ft 167 kts 65°
2026-04-25 22:18 42.22034 -7.41474 6590 ft 163 kts 50°
2026-04-25 22:18 42.22901 -7.40471 6571 ft 169 kts 39°
2026-04-25 22:18 42.23898 -7.39504 6484 ft 176 kts 38°
2026-04-25 22:19 42.24832 -7.38464 6594 ft 170 kts 48°
2026-04-25 22:19 42.25494 -7.37167 6667 ft 168 kts 63°
2026-04-25 22:19 42.26051 -7.35806 6828 ft 162 kts 64°
2026-04-25 22:19 42.26593 -7.34435 6729 ft 174 kts 64°
2026-04-25 22:20 42.27180 -7.32955 6496 ft 180 kts 64°
2026-04-25 22:20 42.27704 -7.31475 6453 ft 172 kts 67°
2026-04-25 22:20 42.28221 -7.30002 6287 ft 172 kts 63°
2026-04-25 22:20 42.28825 -7.28613 6201 ft 170 kts 60°
2026-04-25 22:21 42.29496 -7.27306 5949 ft 171 kts 56°
2026-04-25 22:21 42.30235 -7.26004 5522 ft 176 kts 53°
2026-04-25 22:21 42.30960 -7.24697 5151 ft 171 kts 56°
2026-04-25 22:21 42.31713 -7.23552 5014 ft 156 kts 44°
2026-04-25 22:22 42.32558 -7.22702 4946 ft 147 kts 33°
2026-04-25 22:22 42.33473 -7.22118 4841 ft 147 kts 21°
2026-04-25 22:22 42.34433 -7.21640 4701 ft 145 kts 24°
2026-04-25 22:22 42.35358 -7.21121 4625 ft 145 kts 25°
2026-04-25 22:23 42.36360 -7.20747 4491 ft 158 kts 10°
2026-04-25 22:23 42.37444 -7.20807 4562 ft 155 kts 354°
2026-04-25 22:23 42.38504 -7.21057 4518 ft 158 kts 347°
2026-04-25 22:23 42.39588 -7.21468 4290 ft 165 kts 347°
2026-04-25 22:24 42.40701 -7.21839 4124 ft 162 kts 351°
2026-04-25 22:24 42.41791 -7.22146 3896 ft 165 kts 347°
2026-04-25 22:24 42.42862 -7.22598 3844 ft 156 kts 345°
2026-04-25 22:24 42.43891 -7.22957 3791 ft 154 kts 351°
2026-04-25 22:25 42.44938 -7.23083 3722 ft 153 kts 354°
2026-04-25 22:25 42.45943 -7.23581 3570 ft 156 kts 331°
2026-04-25 22:25 42.46878 -7.24368 3481 ft 157 kts 330°
2026-04-25 22:25 42.47803 -7.25123 3692 ft 157 kts 331°
2026-04-25 22:26 42.48822 -7.25701 3893 ft 159 kts 348°
2026-04-25 22:26 42.49893 -7.26033 4104 ft 157 kts 351°
2026-04-25 22:26 42.50976 -7.26326 4223 ft 161 kts 352°
2026-04-25 22:26 42.52062 -7.26638 4474 ft 157 kts 349°
2026-04-25 22:27 42.53130 -7.27014 4722 ft 160 kts 347°
2026-04-25 22:27 42.54189 -7.27584 4908 ft 169 kts 335°
2026-04-25 22:27 42.55145 -7.28522 5125 ft 169 kts 315°
2026-04-25 22:27 42.55836 -7.29829 5206 ft 174 kts 300°
2026-04-25 22:28 42.56381 -7.31329 5213 ft 182 kts 294°
2026-04-25 22:28 42.56752 -7.32926 5474 ft 167 kts 271°
2026-04-25 22:28 42.56651 -7.34422 5600 ft 168 kts 264°
2026-04-25 22:28 42.56509 -7.35997 5095 ft 168 kts 257°
2026-04-25 22:29 42.55967 -7.37450 4177 ft 176 kts 234°
2026-04-25 22:29 42.55208 -7.38644 3633 ft 157 kts 211°
2026-04-25 22:29 42.54538 -7.39078 3427 ft 139 kts 205°
2026-04-25 22:30 42.53767 -7.41294 3286 ft 155 kts 287°
2026-04-25 22:30 42.54162 -7.42648 3417 ft 151 kts 303°
2026-04-25 22:30 42.54754 -7.43832 3557 ft 149 kts 307°
2026-04-25 22:30 42.55075 -7.44655 3675 ft 151 kts 293°
2026-04-25 22:31 42.55301 -7.46580 3570 ft 167 kts 270°
2026-04-25 22:31 42.55291 -7.48156 3566 ft 166 kts 271°
2026-04-25 22:31 42.55288 -7.49717 3532 ft 167 kts 271°
2026-04-25 22:31 42.55304 -7.51299 3482 ft 169 kts 274°
2026-04-25 22:32 42.55056 -7.52783 3501 ft 161 kts 226°
2026-04-25 22:32 42.54115 -7.53230 3678 ft 150 kts 158°
2026-04-25 22:32 42.53740 -7.52911 3560 ft 156 kts 135°
2026-04-25 22:32 42.53263 -7.51681 3546 ft 137 kts 104°
2026-04-25 22:33 42.53238 -7.50363 3044 ft 154 kts 56°
2026-04-25 22:33 42.54037 -7.49448 2782 ft 152 kts 30°
2026-04-25 22:33 42.55032 -7.49054 2728 ft 138 kts
2026-04-25 22:33 42.55607 -7.49859 2820 ft 134 kts 284°
2026-04-25 22:34 42.55493 -7.51114 2681 ft 145 kts 248°
2026-04-25 22:34 42.54983 -7.52346 2350 ft 156 kts 232°
2026-04-25 22:34 42.54135 -7.52962 2206 ft 149 kts 149°
2026-04-25 22:34 42.54034 -7.51745 2155 ft 128 kts 70°
2026-04-25 22:35 42.54178 -7.51026 1764 ft 134 kts 79°
2026-04-25 22:35 42.54326 -7.50652 1756 ft 122 kts 37°
2026-04-25 22:35 42.54703 -7.50679 1738 ft 96 kts 322°
2026-04-25 22:35 42.54839 -7.51339 1303 ft 102 kts 255°
2026-04-25 22:36 42.54641 -7.52142 1077 ft 57 kts 264°
2026-04-25 22:36 42.54624 -7.52237 1083 ft 11 kts 274°
2026-04-25 22:36 42.54663 -7.52257 1087 ft 18 kts 42°
2026-04-25 22:36 42.54681 -7.52075 1077 ft 20 kts 81°
2026-04-25 22:37 42.54695 -7.51918 1079 ft 14 kts 72°
2026-04-25 22:37 42.54723 -7.51811 1081 ft 10 kts 70°
2026-04-25 22:37 42.54735 -7.51741 1082 ft 5 kts 103°
2026-04-25 22:37 42.54703 -7.51717 1082 ft 6 kts 182°
2026-04-25 22:38 42.54698 -7.51717 1082 ft 0 kts 184°